createdAt,value
2023-01-04T00:03:52.975Z,134.30
2023-01-04T00:09:15.201Z,113.90
2023-01-04T00:14:37.130Z,130.90
2023-01-04T00:19:58.961Z,137.10
2023-01-04T00:25:20.719Z,104.20
2023-01-04T00:30:42.840Z,108.40
2023-01-04T00:36:07.266Z,102.60
2023-01-04T00:41:57.598Z,87.10
2023-01-04T00:47:11.094Z,81.20
2023-01-04T00:52:32.915Z,88.30
2023-01-04T00:57:57.391Z,100.20
2023-01-04T01:03:19.547Z,77.00
2023-01-04T01:08:41.414Z,86.30
2023-01-04T01:14:04.433Z,86.50
2023-01-04T01:19:28.004Z,71.90
2023-01-04T01:24:49.598Z,78.80
2023-01-04T01:30:11.729Z,91.60
2023-01-04T01:35:34.570Z,91.50
2023-01-04T01:40:56.057Z,95.60
2023-01-04T01:46:40.769Z,100.20
2023-01-04T01:52:09.340Z,98.50
2023-01-04T01:57:34.171Z,108.10
2023-01-04T02:02:58.501Z,102.70
2023-01-04T02:08:22.793Z,99.80
2023-01-04T02:14:03.905Z,99.60
2023-01-04T02:19:57.570Z,95.50
2023-01-04T02:25:44.528Z,91.10
2023-01-04T02:31:29.115Z,99.10
2023-01-04T02:37:05.863Z,95.20
2023-01-04T02:43:15.688Z,86.50
2023-01-04T02:48:58.267Z,91.20
2023-01-04T02:54:27.313Z,92.50
2023-01-04T03:00:10.982Z,77.90
2023-01-04T03:06:06.544Z,79.40
2023-01-04T03:11:55.248Z,75.50
2023-01-04T03:17:20.103Z,73.60
2023-01-04T03:23:22.064Z,75.50
2023-01-04T03:29:03.477Z,78.80
2023-01-04T03:34:43.951Z,78.40
2023-01-04T03:40:37.994Z,88.40
2023-01-04T03:46:35.317Z,90.00
2023-01-04T03:51:58.979Z,99.40
2023-01-04T03:57:21.009Z,85.40
2023-01-04T04:02:44.711Z,84.60
2023-01-04T04:08:26.143Z,90.40
2023-01-04T04:13:48.798Z,96.70
2023-01-04T04:19:10.526Z,86.10
2023-01-04T04:24:32.629Z,60.60
2023-01-04T04:29:54.249Z,44.40
2023-01-04T04:35:16.387Z,45.10
2023-01-04T04:40:59.954Z,45.70
2023-01-04T04:46:22.401Z,52.10
2023-01-04T04:51:45.167Z,69.40
2023-01-04T04:57:06.791Z,57.80
2023-01-04T05:02:30.928Z,54.50
2023-01-04T05:07:53.161Z,49.40
2023-01-04T05:13:15.044Z,45.40
2023-01-04T05:18:37.118Z,47.70
2023-01-04T05:23:59.070Z,38.70
2023-01-04T05:29:39.345Z,43.20
2023-01-04T05:35:02.838Z,40.60
2023-01-04T05:40:24.702Z,51.60
2023-01-04T05:45:54.712Z,39.10
2023-01-04T05:51:16.592Z,39.00
2023-01-04T05:56:38.418Z,44.10
2023-01-04T06:02:00.621Z,43.80
2023-01-04T06:07:23.284Z,58.90
2023-01-04T06:12:46.351Z,38.30
2023-01-04T06:18:13.094Z,39.70
2023-01-04T06:23:35.538Z,38.90
2023-01-04T06:28:57.157Z,41.10
2023-01-04T06:34:19.364Z,35.20
2023-01-04T06:39:41.811Z,31.10
2023-01-04T06:45:04.326Z,31.80
2023-01-04T06:50:26.151Z,31.90
2023-01-04T06:55:47.975Z,35.00
2023-01-04T07:01:10.058Z,28.50
2023-01-04T07:06:31.824Z,34.40
2023-01-04T07:11:53.486Z,30.40
2023-01-04T07:17:15.384Z,32.30
2023-01-04T07:22:37.418Z,37.90
2023-01-04T07:27:59.550Z,41.50
2023-01-04T07:33:21.515Z,37.10
2023-01-04T07:38:45.911Z,39.00
2023-01-04T07:44:08.873Z,34.60
2023-01-04T07:49:30.687Z,47.70
2023-01-04T07:54:52.374Z,83.90
2023-01-04T08:00:14.655Z,37.10
2023-01-04T08:05:36.659Z,32.60
2023-01-04T08:11:07.699Z,31.40
2023-01-04T08:16:36.186Z,32.70
2023-01-04T08:21:58.182Z,34.20
2023-01-04T08:27:20.239Z,35.60
2023-01-04T08:32:41.975Z,36.80
2023-01-04T08:38:46.786Z,30.60
2023-01-04T08:43:45.994Z,31.00
2023-01-04T08:49:08.232Z,30.10
2023-01-04T08:54:29.753Z,30.50
2023-01-04T08:59:51.797Z,28.00
2023-01-04T09:05:22.377Z,32.70
2023-01-04T09:10:45.174Z,30.00
2023-01-04T09:16:09.696Z,31.40
2023-01-04T09:21:31.853Z,29.70
2023-01-04T09:26:53.989Z,29.80
2023-01-04T09:32:17.403Z,34.00
2023-01-04T09:37:39.218Z,32.20
2023-01-04T09:43:21.338Z,23.80
2023-01-04T09:48:44.869Z,22.90
2023-01-04T09:54:17.232Z,23.60
2023-01-04T09:59:39.169Z,94.90
2023-01-04T10:05:02.219Z,195.90
2023-01-04T10:10:41.130Z,107.00
2023-01-04T10:16:17.653Z,75.00
2023-01-04T10:21:54.261Z,30.20
2023-01-04T10:27:51.608Z,30.00
2023-01-04T10:33:34.304Z,22.60
2023-01-04T10:39:04.773Z,19.60
2023-01-04T10:44:50.376Z,19.10
2023-01-04T10:50:38.625Z,16.50
2023-01-04T10:56:24.492Z,17.70
2023-01-04T11:01:54.526Z,20.60
2023-01-04T11:07:21.820Z,25.90
2023-01-04T11:12:43.645Z,20.60
2023-01-04T11:18:08.186Z,21.90
2023-01-04T11:23:29.911Z,26.80
2023-01-04T11:28:58.060Z,26.10
2023-01-04T11:34:19.791Z,30.50
2023-01-04T11:39:41.621Z,37.80
2023-01-04T11:45:03.448Z,34.50
2023-01-04T11:50:42.939Z,23.50
2023-01-04T11:56:12.297Z,36.40
2023-01-04T12:01:37.174Z,18.50
2023-01-04T12:07:31.491Z,73.90
2023-01-04T12:12:57.722Z,30.00
2023-01-04T12:18:26.694Z,24.90
2023-01-04T12:23:49.108Z,18.10
2023-01-04T12:29:22.793Z,17.90
2023-01-04T12:34:46.356Z,17.90
2023-01-04T12:40:45.676Z,16.00
2023-01-04T12:52:48.017Z,11.00
2023-01-04T12:58:42.233Z,24.80
2023-01-04T13:04:28.358Z,16.20
2023-01-04T13:09:53.201Z,22.70
2023-01-04T13:15:37.712Z,20.40
2023-01-04T13:21:08.418Z,18.20
2023-01-04T13:26:37.957Z,14.80
2023-01-04T13:32:00.167Z,12.00
2023-01-04T13:37:38.311Z,17.80
2023-01-04T13:43:15.230Z,19.10
2023-01-04T13:48:42.326Z,51.60
2023-01-04T13:54:06.720Z,29.90
2023-01-04T13:59:28.449Z,17.20
2023-01-04T14:04:50.776Z,22.60
2023-01-04T14:10:17.949Z,21.50
2023-01-04T14:15:39.975Z,19.00
2023-01-04T14:21:02.185Z,18.60
2023-01-04T14:26:32.040Z,39.20
2023-01-04T14:31:53.874Z,21.70
2023-01-04T14:37:15.762Z,25.80
2023-01-04T14:42:37.755Z,20.10
2023-01-04T14:47:59.855Z,19.90
2023-01-04T14:53:21.892Z,32.00
2023-01-04T14:58:44.820Z,23.90
2023-01-04T15:04:07.538Z,19.50
2023-01-04T15:09:30.112Z,13.50
2023-01-04T15:14:52.221Z,17.40
2023-01-04T15:20:14.747Z,15.50
2023-01-04T15:25:39.748Z,15.10
2023-01-04T15:31:06.602Z,23.60
2023-01-04T15:36:28.514Z,32.10
2023-01-04T15:42:09.568Z,21.50
2023-01-04T15:47:31.701Z,22.50
2023-01-04T15:52:53.815Z,27.20
2023-01-04T15:58:15.854Z,27.50
2023-01-04T16:03:38.173Z,30.80
2023-01-04T16:09:02.091Z,28.20
2023-01-04T16:14:24.241Z,32.80
2023-01-04T16:19:45.773Z,29.70
2023-01-04T16:25:11.206Z,25.30
2023-01-04T16:30:35.162Z,26.00
2023-01-04T16:36:06.766Z,30.80
2023-01-04T16:41:28.844Z,28.30
2023-01-04T16:46:50.959Z,24.40
2023-01-04T16:52:13.047Z,26.70
2023-01-04T16:57:34.835Z,26.20
2023-01-04T17:02:57.214Z,23.10
2023-01-04T17:08:25.192Z,30.90
2023-01-04T17:13:49.047Z,28.90
2023-01-04T17:19:10.879Z,43.00
2023-01-04T17:24:32.814Z,22.80
2023-01-04T17:29:54.937Z,27.40
2023-01-04T17:35:16.665Z,23.20
2023-01-04T17:40:39.195Z,23.90
2023-01-04T17:46:02.627Z,23.20
2023-01-04T17:51:26.065Z,33.10
2023-01-04T17:56:47.703Z,26.60
2023-01-04T18:02:10.502Z,64.70
2023-01-04T18:07:33.557Z,48.80
2023-01-04T18:12:55.185Z,65.40
2023-01-04T18:18:17.016Z,40.10
2023-01-04T18:23:38.957Z,18.50
2023-01-04T18:29:00.934Z,21.80
2023-01-04T18:34:26.580Z,26.30
2023-01-04T18:39:49.262Z,25.00
2023-01-04T18:45:11.378Z,29.10
2023-01-04T18:50:36.266Z,26.20
2023-01-04T18:56:04.396Z,27.50
2023-01-04T19:01:29.598Z,18.80
2023-01-04T19:06:51.645Z,28.70
2023-01-04T19:12:13.664Z,24.50
2023-01-04T19:17:36.008Z,19.10
2023-01-04T19:22:57.498Z,20.10
2023-01-04T19:28:20.470Z,13.90
2023-01-04T19:33:42.708Z,15.40
2023-01-04T19:39:09.493Z,14.30
2023-01-04T19:44:31.458Z,16.30
2023-01-04T19:49:54.301Z,13.10
2023-01-04T19:55:16.757Z,12.70
2023-01-04T20:00:41.157Z,16.30
2023-01-04T20:06:04.888Z,13.50
2023-01-04T20:11:26.633Z,14.20
2023-01-04T20:16:48.571Z,23.40
2023-01-04T20:22:11.194Z,16.50
2023-01-04T20:27:33.929Z,15.70
2023-01-04T20:32:55.701Z,14.10
2023-01-04T20:38:17.490Z,18.30
2023-01-04T20:43:39.627Z,13.10
2023-01-04T20:49:02.124Z,12.60
2023-01-04T20:54:23.874Z,18.30
2023-01-04T20:59:46.669Z,17.40
2023-01-04T21:05:09.051Z,15.10
2023-01-04T21:10:31.133Z,18.30
2023-01-04T21:15:53.341Z,13.70
2023-01-04T21:21:17.038Z,17.10
2023-01-04T21:26:39.063Z,17.50
2023-01-04T21:32:00.791Z,12.50
2023-01-04T21:37:22.426Z,14.10
2023-01-04T21:42:44.255Z,15.30
2023-01-04T21:48:06.913Z,18.70
2023-01-04T21:53:30.036Z,14.60
2023-01-04T21:58:52.062Z,16.50
2023-01-04T22:04:14.130Z,15.80
2023-01-04T22:09:36.304Z,14.70
2023-01-04T22:14:58.839Z,17.20
2023-01-04T22:20:20.595Z,12.40
2023-01-04T22:25:44.916Z,18.00
2023-01-04T22:31:09.628Z,15.10
2023-01-04T22:36:31.395Z,19.80
2023-01-04T22:41:53.179Z,18.90
2023-01-04T22:47:14.740Z,19.40
2023-01-04T22:52:36.630Z,12.60
2023-01-04T22:57:58.488Z,15.20
2023-01-04T23:03:20.467Z,15.10
2023-01-04T23:08:42.412Z,14.80
2023-01-04T23:14:06.836Z,13.50
2023-01-04T23:19:28.712Z,14.10
2023-01-04T23:24:50.947Z,14.00
2023-01-04T23:30:13.577Z,15.10
2023-01-04T23:35:35.199Z,15.10
2023-01-04T23:40:57.329Z,16.10
2023-01-04T23:46:19.363Z,15.10
2023-01-04T23:51:42.763Z,12.50
2023-01-04T23:57:05.030Z,15.90
